Gilbertville, IA

6:13 AM CST on January 28, 2015 (GMT -0600)
IADOT Waterloo (US 20) | Change Station
CLOSE
Current Station
Personal Weather Station
Location: Waterloo, IA
Elevation: 882 ft
Nearby Weather Stations

Elev 882 ft 42.46 °N, 92.31 °W | Updated 51 minutes ago

Overcast
Overcast
27 °F
Feels Like 17 °F
N
12
Wind Variable Wind from SSE
Gusts 16.0 mph

Today
High -- | Low -- °F
--% Chance of Precip.
Yesterday
High -- | Low -- °F
Precip. -- in
7:26 AM 5:17 PM
Waxing Gibbous, 64% visible
Pressure 30.14 in
Visibility 3.0 miles
Clouds Overcast 400 ft
Windchill 17 °F
Dew Point 27 °F
Humidity 99%
Rainfall -999.00 in
Snow Depth Not available.
UV 0 out of 12
Pollen .10 out of 12
Air Quality Not available.
Flu Activity Not available.
METAR KALO 281154Z AUTO 14011KT 3SM BR OVC004 M03/M04 A3010 RMK AO2 SLP204 T10331039 11028 21033 58009

More Conditions Fewer Conditions

Pressure 30.14 in
Visibility 3.0 miles
Clouds Overcast 400 ft
Windchill 17 °F
Dew Point 27 °F
Humidity 99%
Rainfall -999.00 in
Snow Depth Not available.
UV 0 out of 12
Pollen .10 out of 12
Air Quality Not available.
Flu Activity Not available.
METAR KALO 281154Z AUTO 14011KT 3SM BR OVC004 M03/M04 A3010 RMK AO2 SLP204 T10331039 11028 21033 58009

More Conditions Fewer Conditions

10-Day Weather Forecast

Almanac

Astronomy

Jan. 28, 2015 Rise Set
Actual Time
Civil Twilight
Nautical Twilight
Astronomical Twilight
Moon
Length of Visible Light
Length of Day
Tomorrow will be .
, % of the Moon is Illuminated

Today's Extremes

State Highs State Lows

Community

WunderPhotos

Upload Photos

1,791,131 photos uploaded!

WunderBlogs® & News

Nearby

Air Quality

  Air Quality AQ Index Pollutant
Not available.

Snow Depth

Station Depth Elevation

Earthquake Activity

City Distance Mag. Time & Date
Minimum magnitude displayed is 2.5.

Coastal Water Temperatures

Place Temperature

Nearby Weather Stations